EPWA/WAW METAR and TAF weather

Enter ICAO airport designator
Station Type Date Time Source
EPWA METAR 2019/02/16 03:00 UTC NOAA

EPWA 160300Z 25004KT 210V290 1000 R33/1100D BR OVC002 02/02 Q1029 TEMPO 0600 FG


Station Type Date Time Source
EPWA Decoded METAR 2019/02/16 03:00 UTC NOAA

Warszawa-Okecie, Poland (EPWA) 52-10N 020-58E 107M
Feb 15, 2019 - 10:00 PM EST / 2019.02.16 0300 UTC
Wind: from the WSW (250 degrees) at 5 MPH (4 KT) (direction variable):0
Visibility: less than 1 mile:0
Sky conditions: overcast
Weather: mist
Temperature: 35 F (2 C)
Windchill: 30 F (-1 C):1
Dew Point: 35 F (2 C)
Relative Humidity: 100%
Pressure (altimeter): 30.39 in. Hg (1029 hPa)
ob: EPWA 160300Z 25004KT 210V290 1000 R33/1100D BR OVC002 02/02 Q1029 TEMPO 0600 FG
cycle: 3

Station Type Date Time Source
EPWA TAF 2019/02/16 03:40 UTC NOAA

TAF EPWA 160230Z 1603/1703 25004KT 2000 BR OVC002 PROB40 1603/1609 0500 FG OVC001
BECMG 1610/1612 8000 SCT012


Example: see airport list